createdAt,value
2018-11-21T00:00:56.976Z,28.73
2018-11-21T00:03:25.506Z,25.03
2018-11-21T00:05:54.083Z,23.83
2018-11-21T00:08:23.040Z,28.67
2018-11-21T00:10:51.560Z,25.00
2018-11-21T00:13:20.087Z,24.83
2018-11-21T00:15:48.631Z,28.13
2018-11-21T00:18:17.150Z,25.60
2018-11-21T00:20:45.668Z,22.07
2018-11-21T00:23:14.235Z,28.30
2018-11-21T00:25:42.752Z,26.73
2018-11-21T00:28:11.293Z,22.83
2018-11-21T00:30:39.825Z,25.33
2018-11-21T00:33:08.366Z,30.07
2018-11-21T00:35:36.874Z,24.47
2018-11-21T00:38:08.321Z,24.70
2018-11-21T00:40:36.917Z,28.67
2018-11-21T00:43:05.437Z,26.30
2018-11-21T00:45:33.880Z,28.60
2018-11-21T00:48:02.438Z,28.67
2018-11-21T00:50:30.953Z,24.93
2018-11-21T00:52:59.534Z,26.93
2018-11-21T00:55:28.093Z,24.60
2018-11-21T00:57:56.606Z,25.53
2018-11-21T01:00:25.134Z,23.40
2018-11-21T01:02:53.655Z,26.03
2018-11-21T01:05:22.171Z,24.27
2018-11-21T01:07:50.663Z,27.10
2018-11-21T01:10:19.202Z,28.63
2018-11-21T01:12:47.720Z,26.67
2018-11-21T01:15:16.323Z,29.87
2018-11-21T01:17:44.810Z,23.27
2018-11-21T01:20:13.391Z,31.13
2018-11-21T01:22:41.931Z,29.37
2018-11-21T01:25:10.452Z,31.27
2018-11-21T01:27:38.990Z,32.03
2018-11-21T01:30:07.809Z,30.07
2018-11-21T01:32:36.426Z,30.27
2018-11-21T01:35:06.167Z,34.43
2018-11-21T01:37:34.668Z,29.63
2018-11-21T01:40:04.184Z,30.80
2018-11-21T01:42:32.682Z,32.03
2018-11-21T01:45:01.212Z,28.60
2018-11-21T01:47:29.733Z,33.77
2018-11-21T01:49:59.368Z,30.70
2018-11-21T01:52:27.914Z,34.93
2018-11-21T01:54:56.444Z,30.10
2018-11-21T01:57:24.979Z,35.43
2018-11-21T01:59:53.527Z,34.77
2018-11-21T02:02:22.041Z,33.80
2018-11-21T02:04:50.598Z,30.20
2018-11-21T02:07:19.193Z,35.90
2018-11-21T02:09:47.679Z,32.97
2018-11-21T02:12:16.267Z,35.03
2018-11-21T02:14:44.785Z,33.60
2018-11-21T02:17:13.322Z,36.70
2018-11-21T02:19:41.802Z,37.33
2018-11-21T02:22:10.313Z,34.83
2018-11-21T02:24:38.815Z,35.43
2018-11-21T02:27:07.337Z,33.63
2018-11-21T02:29:35.884Z,33.77
2018-11-21T02:32:04.448Z,36.67
2018-11-21T02:34:32.954Z,35.27
2018-11-21T02:37:01.446Z,33.97
2018-11-21T02:39:29.990Z,34.30
2018-11-21T02:41:58.489Z,38.03
2018-11-21T02:44:27.015Z,34.53
2018-11-21T02:46:55.558Z,34.27
2018-11-21T02:49:24.108Z,31.13
2018-11-21T02:51:52.647Z,36.60
2018-11-21T02:54:21.179Z,34.70
2018-11-21T02:57:07.976Z,37.50
2018-11-21T02:59:36.480Z,32.03
2018-11-21T03:02:05.146Z,36.83
2018-11-21T03:04:33.649Z,37.37
2018-11-21T03:07:02.173Z,41.70
2018-11-21T03:09:30.715Z,39.40
2018-11-21T03:11:59.254Z,39.83
2018-11-21T03:14:27.789Z,42.00
2018-11-21T03:16:56.341Z,35.63
2018-11-21T03:19:24.929Z,35.23
2018-11-21T03:21:53.442Z,42.07
2018-11-21T03:24:22.055Z,41.17
2018-11-21T03:26:51.103Z,39.00
2018-11-21T03:29:19.661Z,44.77
2018-11-21T03:31:48.225Z,37.10
2018-11-21T03:34:17.141Z,37.33
2018-11-21T03:36:52.943Z,38.23
2018-11-21T03:39:22.553Z,37.43
2018-11-21T03:41:51.097Z,43.13
2018-11-21T03:44:19.625Z,46.03
2018-11-21T03:46:48.715Z,42.97
2018-11-21T03:49:17.482Z,42.40
2018-11-21T03:51:46.103Z,47.33
2018-11-21T03:54:14.630Z,40.43
2018-11-21T03:56:43.163Z,41.80
2018-11-21T03:59:11.667Z,36.07
2018-11-21T04:01:40.345Z,38.10
2018-11-21T04:04:09.349Z,42.33
2018-11-21T04:06:37.894Z,37.47
2018-11-21T04:09:10.771Z,37.80
2018-11-21T04:11:39.287Z,44.97
2018-11-21T04:14:08.083Z,35.03
2018-11-21T04:16:36.640Z,40.50
2018-11-21T04:19:05.148Z,43.47
2018-11-21T04:21:33.642Z,34.27
2018-11-21T04:24:02.158Z,36.60
2018-11-21T04:26:30.665Z,37.77
2018-11-21T04:28:59.191Z,37.87
2018-11-21T04:31:27.703Z,38.83
2018-11-21T04:33:56.231Z,38.43
2018-11-21T04:36:24.759Z,29.53
2018-11-21T04:38:53.298Z,37.47
2018-11-21T04:41:21.798Z,40.63
2018-11-21T04:43:50.345Z,35.10
2018-11-21T04:46:19.014Z,37.20
2018-11-21T04:48:47.524Z,37.00
2018-11-21T04:51:16.054Z,41.10
2018-11-21T04:53:44.579Z,36.23
2018-11-21T04:56:13.186Z,38.93
2018-11-21T04:58:41.690Z,39.33
2018-11-21T05:01:10.230Z,36.30
2018-11-21T05:03:38.744Z,33.80
2018-11-21T05:06:07.253Z,41.83
2018-11-21T05:08:35.754Z,37.73
2018-11-21T05:11:04.337Z,42.10
2018-11-21T05:13:32.858Z,40.03
2018-11-21T05:16:01.387Z,38.07
2018-11-21T05:18:30.144Z,38.13
2018-11-21T05:20:58.647Z,36.53
2018-11-21T05:23:27.187Z,39.77
2018-11-21T05:25:55.739Z,39.97
2018-11-21T05:28:24.359Z,35.70
2018-11-21T05:30:52.911Z,40.27
2018-11-21T05:33:22.510Z,38.97
2018-11-21T05:35:51.097Z,34.27
2018-11-21T05:38:20.582Z,32.50
2018-11-21T05:40:49.021Z,38.10
2018-11-21T05:43:17.542Z,37.87
2018-11-21T05:45:46.086Z,35.90
2018-11-21T05:48:14.714Z,36.40
2018-11-21T05:50:43.315Z,40.57
2018-11-21T05:53:11.854Z,36.60
2018-11-21T05:55:40.392Z,35.50
2018-11-21T05:58:09.039Z,37.70
2018-11-21T06:00:37.575Z,40.50
2018-11-21T06:03:06.129Z,32.33
2018-11-21T06:05:34.692Z,35.47
2018-11-21T06:08:03.953Z,36.03
2018-11-21T06:10:32.556Z,41.40
2018-11-21T06:13:01.130Z,40.87
2018-11-21T06:15:29.705Z,38.60
2018-11-21T06:17:58.260Z,37.10
2018-11-21T06:20:26.810Z,39.47
2018-11-21T06:22:55.492Z,40.92
2018-11-21T06:25:24.022Z,37.33
2018-11-21T06:27:52.638Z,40.83
2018-11-21T06:30:21.098Z,41.83
2018-11-21T06:32:49.691Z,39.10
2018-11-21T06:35:18.266Z,40.63
2018-11-21T06:37:46.838Z,37.17
2018-11-21T06:40:16.208Z,36.27
2018-11-21T06:42:57.969Z,43.77
2018-11-21T06:45:27.313Z,51.37
2018-11-21T06:47:59.039Z,38.53
2018-11-21T06:50:27.589Z,43.93
2018-11-21T06:52:58.405Z,36.37
2018-11-21T06:55:27.179Z,41.67
2018-11-21T06:57:55.847Z,35.23
2018-11-21T07:00:24.360Z,37.40
2018-11-21T07:02:52.908Z,36.77
2018-11-21T07:05:21.467Z,37.00
2018-11-21T07:07:50.028Z,36.77
2018-11-21T07:10:19.104Z,41.67
2018-11-21T07:12:47.957Z,44.37
2018-11-21T07:15:16.576Z,35.60
2018-11-21T07:17:45.168Z,35.83
2018-11-21T07:20:14.005Z,41.30
2018-11-21T07:22:42.709Z,35.73
2018-11-21T07:25:15.944Z,35.80
2018-11-21T07:27:44.745Z,39.40
2018-11-21T07:30:14.519Z,45.83
2018-11-21T07:32:43.099Z,39.87
2018-11-21T07:35:14.660Z,36.97
2018-11-21T07:37:41.147Z,38.57
2018-11-21T07:40:11.045Z,35.67
2018-11-21T07:42:39.680Z,40.77
2018-11-21T07:45:09.942Z,40.30
2018-11-21T07:47:45.063Z,40.43
2018-11-21T07:50:15.450Z,36.63
2018-11-21T07:52:44.234Z,38.57
2018-11-21T07:55:13.363Z,35.23
2018-11-21T07:57:46.138Z,33.53
2018-11-21T08:00:50.948Z,37.40
2018-11-21T08:03:20.205Z,37.50
2018-11-21T08:05:53.388Z,33.87
2018-11-21T08:08:46.914Z,37.60
2018-11-21T08:11:40.786Z,33.60
2018-11-21T08:14:25.758Z,39.17
2018-11-21T08:17:11.404Z,40.17
2018-11-21T08:19:59.202Z,31.50
2018-11-21T08:22:55.844Z,34.93
2018-11-21T08:25:48.903Z,37.20
2018-11-21T08:28:29.502Z,33.53
2018-11-21T08:30:58.032Z,39.47
2018-11-21T08:33:26.820Z,35.60
2018-11-21T08:35:55.548Z,33.33
2018-11-21T08:38:24.442Z,31.63
2018-11-21T08:40:53.069Z,29.17
2018-11-21T08:43:21.622Z,35.67
2018-11-21T08:45:50.182Z,36.70
2018-11-21T08:48:19.566Z,31.73
2018-11-21T08:50:48.164Z,36.10
2018-11-21T08:53:19.791Z,26.57
2018-11-21T08:55:51.509Z,33.37
2018-11-21T08:58:22.660Z,35.37
2018-11-21T09:00:51.193Z,36.57
2018-11-21T09:03:21.760Z,34.33
2018-11-21T09:05:50.317Z,36.43
2018-11-21T09:08:22.655Z,33.60
2018-11-21T09:10:49.770Z,34.43
2018-11-21T09:13:18.299Z,35.53
2018-11-21T09:15:46.850Z,33.30
2018-11-21T09:18:15.398Z,28.90
2018-11-21T09:20:43.987Z,34.47
2018-11-21T09:23:12.542Z,32.63
2018-11-21T09:25:41.178Z,33.77
2018-11-21T09:28:09.685Z,35.00
2018-11-21T09:30:38.189Z,31.70
2018-11-21T09:33:06.750Z,36.07
2018-11-21T09:35:35.276Z,32.47
2018-11-21T09:38:04.117Z,32.78
2018-11-21T09:40:32.626Z,33.40
2018-11-21T09:43:01.180Z,34.37
2018-11-21T09:45:29.811Z,32.47
2018-11-21T09:47:58.441Z,35.17
2018-11-21T09:50:28.539Z,34.00
2018-11-21T09:52:57.168Z,31.93
2018-11-21T09:55:25.678Z,34.53
2018-11-21T09:57:54.208Z,31.50
2018-11-21T10:00:41.089Z,35.23
2018-11-21T10:03:11.488Z,31.93
2018-11-21T10:05:40.039Z,31.30
2018-11-21T10:08:28.009Z,32.77
2018-11-21T10:10:56.545Z,30.53
2018-11-21T10:13:25.086Z,33.90
2018-11-21T10:15:53.622Z,27.93
2018-11-21T10:18:22.173Z,31.00
2018-11-21T10:20:52.916Z,30.67
2018-11-21T10:23:26.450Z,30.90
2018-11-21T10:25:54.997Z,32.33
2018-11-21T10:28:23.590Z,35.53
2018-11-21T10:30:52.424Z,27.43
2018-11-21T10:33:20.997Z,28.13
2018-11-21T10:35:49.840Z,29.13
2018-11-21T10:38:18.476Z,29.87
2018-11-21T10:40:47.163Z,31.47
2018-11-21T10:43:15.791Z,21.43
2018-11-21T10:45:44.486Z,30.97
2018-11-21T10:48:13.327Z,27.70
2018-11-21T10:50:42.050Z,27.90
2018-11-21T10:53:10.644Z,31.97
2018-11-21T10:55:39.231Z,27.83
2018-11-21T10:58:07.856Z,30.73
2018-11-21T11:00:54.621Z,31.57
2018-11-21T11:03:25.294Z,29.10
2018-11-21T11:06:14.279Z,34.50
2018-11-21T11:09:00.887Z,30.43
2018-11-21T11:11:55.160Z,28.17
2018-11-21T11:14:41.583Z,30.53
2018-11-21T11:17:44.300Z,28.60
2018-11-21T11:20:30.902Z,30.53
2018-11-21T11:23:21.338Z,25.17
2018-11-21T11:26:04.630Z,35.40
2018-11-21T11:29:10.983Z,28.20
2018-11-21T11:32:05.510Z,36.13
2018-11-21T11:34:56.043Z,33.50
2018-11-21T11:37:47.203Z,29.50
2018-11-21T11:40:34.018Z,30.50
2018-11-21T11:43:15.605Z,30.17
2018-11-21T11:46:06.609Z,30.70
2018-11-21T11:49:06.931Z,26.33
2018-11-21T11:52:06.701Z,29.97
2018-11-21T11:55:06.635Z,34.63
2018-11-21T11:57:54.567Z,30.70
2018-11-21T12:00:33.662Z,30.70
2018-11-21T12:03:20.437Z,31.23
2018-11-21T12:06:08.297Z,34.07
2018-11-21T12:08:54.982Z,32.23
2018-11-21T12:11:54.624Z,32.63
2018-11-21T12:14:48.658Z,28.80
2018-11-21T12:17:45.109Z,31.87
2018-11-21T12:20:45.189Z,29.33
2018-11-21T12:23:41.962Z,25.53
2018-11-21T12:26:19.620Z,26.30
2018-11-21T12:29:07.439Z,28.47
2018-11-21T12:31:54.393Z,28.20
2018-11-21T12:34:40.869Z,30.77
2018-11-21T12:37:27.714Z,30.00
2018-11-21T12:40:24.605Z,32.40
2018-11-21T12:43:13.470Z,30.47
2018-11-21T12:45:57.779Z,32.10
2018-11-21T12:48:36.579Z,25.90
2018-11-21T12:51:27.003Z,31.87
2018-11-21T12:54:02.139Z,28.70
2018-11-21T12:56:48.558Z,30.27
2018-11-21T12:59:30.396Z,25.17
2018-11-21T13:02:17.776Z,28.87
2018-11-21T13:05:04.054Z,29.77
2018-11-21T13:08:10.315Z,31.93
2018-11-21T13:11:10.344Z,30.70
2018-11-21T13:13:50.165Z,31.30
2018-11-21T13:16:31.383Z,33.42
2018-11-21T13:19:24.003Z,30.57
2018-11-21T13:22:17.971Z,32.23
2018-11-21T13:25:05.797Z,32.20
2018-11-21T13:28:02.443Z,33.57
2018-11-21T13:30:49.029Z,32.17
2018-11-21T13:33:55.740Z,32.57
2018-11-21T13:36:42.570Z,33.73
2018-11-21T13:39:30.232Z,27.13
2018-11-21T13:42:15.678Z,26.83
2018-11-21T13:45:07.006Z,31.63
2018-11-21T13:48:10.279Z,31.33
2018-11-21T13:51:07.156Z,27.07
2018-11-21T13:53:49.284Z,32.83
2018-11-21T13:56:17.844Z,33.87
2018-11-21T13:58:46.399Z,34.27
2018-11-21T14:01:15.023Z,32.37
2018-11-21T14:03:43.574Z,31.87
2018-11-21T14:06:12.408Z,30.80
2018-11-21T14:08:40.947Z,32.50
2018-11-21T14:11:09.480Z,31.83
2018-11-21T14:13:38.013Z,34.53
2018-11-21T14:16:06.588Z,32.40
2018-11-21T14:18:35.184Z,30.80
2018-11-21T14:21:03.818Z,34.77
2018-11-21T14:23:32.368Z,31.77
2018-11-21T14:26:00.905Z,35.37
2018-11-21T14:28:29.442Z,33.60
2018-11-21T14:30:57.976Z,35.03
2018-11-21T14:33:26.562Z,33.93
2018-11-21T14:35:56.054Z,34.97
2018-11-21T14:38:23.645Z,33.00
2018-11-21T14:40:52.254Z,34.13
2018-11-21T14:43:20.792Z,35.00
2018-11-21T14:45:49.368Z,34.73
2018-11-21T14:48:17.923Z,30.63
2018-11-21T14:50:46.480Z,33.20
2018-11-21T14:53:14.984Z,32.57
2018-11-21T14:55:43.600Z,34.03
2018-11-21T14:58:12.139Z,33.53
2018-11-21T15:00:40.764Z,35.27
2018-11-21T15:03:09.261Z,37.10
2018-11-21T15:05:37.789Z,38.03
2018-11-21T15:08:06.367Z,39.37
2018-11-21T15:10:34.872Z,38.77
2018-11-21T15:13:04.446Z,37.20
2018-11-21T15:15:32.999Z,37.87
2018-11-21T15:18:01.562Z,38.57
2018-11-21T15:20:30.141Z,34.13
2018-11-21T15:22:58.746Z,37.67
2018-11-21T15:25:27.334Z,37.63
2018-11-21T15:27:55.868Z,41.83
2018-11-21T15:30:25.955Z,37.20
2018-11-21T15:32:54.541Z,34.77
2018-11-21T15:35:23.078Z,42.40
2018-11-21T15:37:51.600Z,37.37
2018-11-21T15:40:21.728Z,37.53
2018-11-21T15:42:50.271Z,37.53
2018-11-21T15:45:20.262Z,42.60
2018-11-21T15:47:50.222Z,35.73
2018-11-21T15:50:18.758Z,35.07
2018-11-21T15:52:52.726Z,39.83
2018-11-21T15:55:16.778Z,41.63
2018-11-21T15:57:45.423Z,38.43
2018-11-21T16:00:14.854Z,37.40
2018-11-21T16:02:44.142Z,39.33
2018-11-21T16:05:12.971Z,36.97
2018-11-21T16:07:41.545Z,39.67
2018-11-21T16:10:18.489Z,38.23
2018-11-21T16:12:40.317Z,35.83
2018-11-21T16:15:09.971Z,41.67
2018-11-21T16:17:38.519Z,37.53
2018-11-21T16:20:07.819Z,38.50
2018-11-21T16:22:36.395Z,36.50
2018-11-21T16:25:05.018Z,35.50
2018-11-21T16:27:33.581Z,35.87
2018-11-21T16:30:02.152Z,37.90
2018-11-21T16:32:30.671Z,44.47
2018-11-21T16:34:59.223Z,39.07
2018-11-21T16:37:27.750Z,36.67
2018-11-21T16:39:56.394Z,39.60
2018-11-21T16:42:24.878Z,36.53
2018-11-21T16:44:53.441Z,35.20
2018-11-21T16:47:22.050Z,39.03
2018-11-21T16:49:50.635Z,39.07
2018-11-21T16:52:19.189Z,35.97
2018-11-21T16:54:47.854Z,39.13
2018-11-21T16:57:16.351Z,32.73
2018-11-21T16:59:44.884Z,36.23
2018-11-21T17:02:13.480Z,36.50
2018-11-21T17:04:42.070Z,32.97
2018-11-21T17:07:10.599Z,38.23
2018-11-21T17:09:43.678Z,40.87
2018-11-21T17:12:13.571Z,34.60
2018-11-21T17:14:42.609Z,36.53
2018-11-21T17:17:11.150Z,36.47
2018-11-21T17:19:39.762Z,39.47
2018-11-21T17:22:08.330Z,34.40
2018-11-21T17:24:36.914Z,37.03
2018-11-21T17:27:05.460Z,35.03
2018-11-21T17:29:34.009Z,39.10
2018-11-21T17:32:02.562Z,39.93
2018-11-21T17:34:31.096Z,32.97
2018-11-21T17:36:59.671Z,42.90
2018-11-21T17:39:28.262Z,39.03
2018-11-21T17:41:56.873Z,40.27
2018-11-21T17:44:25.437Z,41.33
2018-11-21T17:46:53.967Z,35.50
2018-11-21T17:49:22.573Z,36.00
2018-11-21T17:51:51.153Z,47.53
2018-11-21T17:54:19.668Z,44.47
2018-11-21T17:56:48.208Z,41.73
2018-11-21T17:59:16.775Z,40.60
2018-11-21T18:01:45.352Z,42.30
2018-11-21T18:04:13.990Z,46.43
2018-11-21T18:06:42.616Z,33.23
2018-11-21T18:09:12.393Z,40.37
2018-11-21T18:11:41.381Z,43.00
2018-11-21T18:14:10.057Z,41.43
2018-11-21T18:16:38.627Z,37.10
2018-11-21T18:19:07.177Z,46.53
2018-11-21T18:21:35.701Z,36.40
